Time;durP1;ratioP1;P1;durP2;ratioP2;P2;SDS_P1;SDS_P2;PMS_P1;PMS_P2;Temp;Humidity;BMP_temperature;BMP_pressure;BME280_temperature;BME280_humidity;BME280_pressure;Samples;Min_cycle;Max_cycle;Signal;HPM_P1;HPM_P2
2022/05/01 00:01:10;;;;;;;17.60;9.32;;;;;;;;;;5050091;28;20041;-67
2022/05/01 00:03:36;;;;;;;13.80;9.07;;;;;;;;;;5050341;28;20055;-67
2022/05/01 00:06:04;;;;;;;18.33;9.75;;;;;;;;;;5048080;28;20029;-67
2022/05/01 00:08:30;;;;;;;18.40;10.52;;;;;;;;;;5057575;28;20052;-66
2022/05/01 00:10:56;;;;;;;21.73;12.05;;;;;;;;;;5026778;28;20442;-67
2022/05/01 00:13:23;;;;;;;22.13;11.80;;;;;;;;;;5045663;28;20025;-66
2022/05/01 00:15:49;;;;;;;23.55;11.93;;;;;;;;;;5049164;28;20071;-67
2022/05/01 00:18:15;;;;;;;25.15;11.13;;;;;;;;;;5049334;28;20024;-67
2022/05/01 00:20:41;;;;;;;20.40;11.13;;;;;;;;;;5048405;28;20094;-67
2022/05/01 00:23:08;;;;;;;18.38;11.10;;;;;;;;;;5049581;28;20429;-67
2022/05/01 00:25:34;;;;;;;15.10;8.85;;;;;;;;;;5048924;28;20033;-67
2022/05/01 00:28:00;;;;;;;18.95;10.07;;;;;;;;;;5049809;28;20037;-67
2022/05/01 00:30:27;;;;;;;16.73;9.88;;;;;;;;;;5049302;28;20031;-67
2022/05/01 00:38:24;;;;;;;16.08;9.65;;;;;;;;;;5049460;28;20513;-66
2022/05/01 00:40:50;;;;;;;19.45;9.90;;;;;;;;;;5049635;28;20044;-67
2022/05/01 00:43:17;;;;;;;19.45;10.30;;;;;;;;;;5049605;28;20029;-68
2022/05/01 00:45:43;;;;;;;16.23;8.70;;;;;;;;;;5048091;28;20083;-67
2022/05/01 00:48:09;;;;;;;15.38;8.95;;;;;;;;;;5049207;28;20427;-66
2022/05/01 00:50:36;;;;;;;15.85;9.48;;;;;;;;;;5046392;28;20029;-67
2022/05/01 00:53:04;;;;;;;30.42;14.00;;;;;;;;;;5034301;28;20020;-67
2022/05/01 00:55:31;;;;;;;23.45;10.93;;;;;;;;;;5027299;28;20124;-67
2022/05/01 00:57:57;;;;;;;22.00;11.15;;;;;;;;;;5034326;28;20017;-67
2022/05/01 01:00:23;;;;;;;20.52;10.52;;;;;;;;;;5031916;28;20033;-67
2022/05/01 01:02:50;;;;;;;19.17;10.60;;;;;;;;;;5037465;28;20116;-66
2022/05/01 01:05:16;;;;;;;19.02;10.60;;;;;;;;;;5036856;28;20029;-66
2022/05/01 01:07:42;;;;;;;18.83;11.35;;;;;;;;;;5047417;23;20073;-65
2022/05/01 01:10:09;;;;;;;19.95;11.20;;;;;;;;;;5008952;28;20033;-65
2022/05/01 01:12:54;;;;;;;18.02;10.68;;;;;;;;;;5008596;28;20025;-65
2022/05/01 01:15:20;;;;;;;26.50;11.20;;;;;;;;;;5008474;28;20403;-64
2022/05/01 01:17:47;;;;;;;17.08;10.15;;;;;;;;;;5001465;28;20036;-64
2022/05/01 01:20:18;;;;;;;17.05;9.32;;;;;;;;;;5008103;28;20029;-65
2022/05/01 01:22:46;;;;;;;21.70;9.85;;;;;;;;;;5008003;28;20112;-65
2022/05/01 01:25:12;;;;;;;17.92;9.48;;;;;;;;;;5006961;28;20037;-64
2022/05/01 01:27:38;;;;;;;18.80;10.13;;;;;;;;;;5008930;28;20020;-65
2022/05/01 01:32:50;;;;;;;21.42;10.50;;;;;;;;;;5001164;28;20061;-66
2022/05/01 01:35:18;;;;;;;22.17;10.52;;;;;;;;;;5008862;28;20022;-65
2022/05/01 01:37:47;;;;;;;17.30;10.27;;;;;;;;;;5007608;28;20030;-65
2022/05/01 01:40:21;;;;;;;19.92;10.85;;;;;;;;;;5009043;28;20037;-64
2022/05/01 01:42:49;;;;;;;17.02;10.90;;;;;;;;;;5009500;28;20033;-64
2022/05/01 01:45:15;;;;;;;18.10;9.15;;;;;;;;;;5007419;28;20096;-65
2022/05/01 01:47:43;;;;;;;23.52;10.35;;;;;;;;;;5008451;28;20022;-65
2022/05/01 01:50:09;;;;;;;16.58;9.27;;;;;;;;;;5008542;28;20054;-64
2022/05/01 01:52:35;;;;;;;15.38;8.70;;;;;;;;;;5006166;28;20026;-65
2022/05/01 01:55:01;;;;;;;14.18;8.95;;;;;;;;;;5000710;28;20018;-66
2022/05/01 01:57:27;;;;;;;15.98;9.13;;;;;;;;;;5006512;28;20042;-65
2022/05/01 01:59:53;;;;;;;17.27;9.63;;;;;;;;;;5009097;28;20029;-65
2022/05/01 02:02:20;;;;;;;18.90;8.80;;;;;;;;;;5003878;28;20030;-65
2022/05/01 02:04:46;;;;;;;17.25;9.10;;;;;;;;;;5008283;28;20022;-64
2022/05/01 02:07:12;;;;;;;19.15;10.05;;;;;;;;;;5009182;28;20068;-65
2022/05/01 02:09:38;;;;;;;22.58;10.60;;;;;;;;;;5009055;28;20120;-64
2022/05/01 02:12:08;;;;;;;20.67;10.30;;;;;;;;;;5009945;28;20223;-65
2022/05/01 02:14:35;;;;;;;21.88;11.25;;;;;;;;;;5010344;28;20033;-65
2022/05/01 02:17:02;;;;;;;17.92;10.77;;;;;;;;;;5009125;28;20029;-64
2022/05/01 02:19:29;;;;;;;17.17;9.70;;;;;;;;;;5009571;28;20068;-64
2022/05/01 02:21:55;;;;;;;16.50;9.85;;;;;;;;;;5005872;28;20033;-64
2022/05/01 02:24:23;;;;;;;18.42;10.52;;;;;;;;;;5008257;28;20104;-65
2022/05/01 02:26:49;;;;;;;20.00;11.55;;;;;;;;;;5009566;28;20038;-64
2022/05/01 02:29:18;;;;;;;19.55;10.75;;;;;;;;;;5012780;28;20032;-64
2022/05/01 02:35:13;;;;;;;18.52;9.75;;;;;;;;;;5012731;28;20120;-65
2022/05/01 02:37:46;;;;;;;18.38;9.18;;;;;;;;;;5014061;28;20131;-64
2022/05/01 02:40:12;;;;;;;22.98;9.25;;;;;;;;;;5014209;28;20052;-64
2022/05/01 02:42:38;;;;;;;15.30;8.60;;;;;;;;;;5014276;28;20030;-65
2022/05/01 02:45:06;;;;;;;19.05;9.30;;;;;;;;;;5014027;28;20045;-65
2022/05/01 02:47:33;;;;;;;17.95;10.02;;;;;;;;;;5013700;28;20022;-64
2022/05/01 02:50:00;;;;;;;16.85;9.55;;;;;;;;;;5009789;28;20018;-64
2022/05/01 02:52:26;;;;;;;19.02;10.68;;;;;;;;;;5009777;28;20068;-65
2022/05/01 02:54:52;;;;;;;18.70;9.38;;;;;;;;;;5025407;28;20258;-64
2022/05/01 02:57:18;;;;;;;16.55;9.90;;;;;;;;;;5012804;28;20077;-65
2022/05/01 02:59:44;;;;;;;15.30;9.10;;;;;;;;;;5014130;28;20124;-64
2022/05/01 03:02:11;;;;;;;17.20;8.95;;;;;;;;;;5013907;28;20018;-65
2022/05/01 03:04:38;;;;;;;19.30;9.85;;;;;;;;;;5010379;28;20518;-65
2022/05/01 03:07:04;;;;;;;19.52;10.20;;;;;;;;;;5013497;28;20450;-64
2022/05/01 03:09:30;;;;;;;15.52;9.60;;;;;;;;;;5018841;28;20042;-65
2022/05/01 03:11:58;;;;;;;21.48;9.80;;;;;;;;;;5013216;28;20053;-65
2022/05/01 03:14:24;;;;;;;16.90;9.35;;;;;;;;;;5013649;28;20030;-64
2022/05/01 03:16:50;;;;;;;20.75;9.88;;;;;;;;;;5011161;28;20014;-64
2022/05/01 03:22:15;;;;;;;23.17;12.32;;;;;;;;;;5006759;28;20040;-65
2022/05/01 03:24:42;;;;;;;45.72;17.42;;;;;;;;;;5018756;28;20041;-65
2022/05/01 03:27:08;;;;;;;27.13;12.52;;;;;;;;;;5012792;28;20080;-64
2022/05/01 03:29:34;;;;;;;41.28;16.70;;;;;;;;;;5013527;28;20034;-65
2022/05/01 03:32:01;;;;;;;37.42;15.73;;;;;;;;;;5014959;28;20029;-65
2022/05/01 03:34:33;;;;;;;33.40;13.75;;;;;;;;;;5015383;28;20494;-65
2022/05/01 03:36:59;;;;;;;26.88;12.05;;;;;;;;;;5011546;28;20029;-65
2022/05/01 03:39:25;;;;;;;21.40;10.77;;;;;;;;;;5011871;28;20060;-64
2022/05/01 03:41:51;;;;;;;23.48;11.02;;;;;;;;;;5011228;28;20021;-65
2022/05/01 03:44:17;;;;;;;23.80;10.40;;;;;;;;;;5011633;28;20108;-65
2022/05/01 03:46:43;;;;;;;20.98;11.07;;;;;;;;;;5011835;28;20037;-65
2022/05/01 03:49:09;;;;;;;21.38;10.77;;;;;;;;;;5012622;28;20018;-65
2022/05/01 03:51:35;;;;;;;23.02;10.75;;;;;;;;;;5008607;28;20026;-65
2022/05/01 03:54:02;;;;;;;20.85;10.23;;;;;;;;;;5011591;28;20165;-64
2022/05/01 03:56:31;;;;;;;25.08;10.57;;;;;;;;;;5010363;28;20102;-64
2022/05/01 03:58:58;;;;;;;23.45;11.63;;;;;;;;;;5016700;28;20121;-65
2022/05/01 04:01:25;;;;;;;23.55;11.95;;;;;;;;;;5007852;28;20078;-65
2022/05/01 04:03:51;;;;;;;19.15;11.65;;;;;;;;;;5010712;28;20030;-64
2022/05/01 04:06:17;;;;;;;23.35;11.50;;;;;;;;;;5006980;28;20062;-64
2022/05/01 04:08:43;;;;;;;21.33;10.77;;;;;;;;;;5013072;28;20116;-65
2022/05/01 04:11:10;;;;;;;17.73;10.07;;;;;;;;;;5012558;28;20026;-65
2022/05/01 04:13:36;;;;;;;26.48;11.75;;;;;;;;;;5010772;28;20045;-65
2022/05/01 04:16:03;;;;;;;19.77;11.25;;;;;;;;;;5011489;28;20037;-64
2022/05/01 04:18:31;;;;;;;19.13;10.07;;;;;;;;;;5012299;28;20075;-65
2022/05/01 04:20:57;;;;;;;19.77;10.25;;;;;;;;;;5012931;28;20026;-64
2022/05/01 04:23:24;;;;;;;18.85;9.10;;;;;;;;;;5011271;28;20069;-65
2022/05/01 04:25:50;;;;;;;18.35;9.00;;;;;;;;;;5010721;28;20165;-65
2022/05/01 04:28:16;;;;;;;18.27;9.25;;;;;;;;;;5012113;28;20033;-65
2022/05/01 04:30:42;;;;;;;16.20;9.02;;;;;;;;;;5012001;28;20049;-65
2022/05/01 04:33:13;;;;;;;15.98;9.50;;;;;;;;;;5010660;28;20379;-65
2022/05/01 04:35:40;;;;;;;;;;;;;;;;;;5011787;28;20041;-65
2022/05/01 04:38:07;;;;;;;15.55;8.57;;;;;;;;;;5009432;28;20429;-64
2022/05/01 04:40:38;;;;;;;16.27;9.55;;;;;;;;;;5010576;28;20052;-65
2022/05/01 04:43:08;;;;;;;17.73;9.00;;;;;;;;;;5010165;28;20549;-65
2022/05/01 04:45:35;;;;;;;15.07;8.32;;;;;;;;;;5011225;28;20065;-65
2022/05/01 04:48:01;;;;;;;17.48;9.35;;;;;;;;;;5011667;28;20024;-65
2022/05/01 04:50:27;;;;;;;15.77;8.07;;;;;;;;;;5011697;28;20025;-65
2022/05/01 04:52:54;;;;;;;19.58;9.35;;;;;;;;;;5010160;28;20402;-65
2022/05/01 04:55:20;;;;;;;16.40;9.50;;;;;;;;;;5007345;28;20487;-64
2022/05/01 04:57:46;;;;;;;15.75;9.65;;;;;;;;;;5010887;28;20038;-65
2022/05/01 05:00:18;;;;;;;15.10;9.02;;;;;;;;;;5010904;28;20105;-65
2022/05/01 05:02:46;;;;;;;15.65;9.50;;;;;;;;;;5011510;28;20064;-65
2022/05/01 05:05:12;;;;;;;17.15;9.07;;;;;;;;;;5026258;28;20026;-65
2022/05/01 05:07:39;;;;;;;15.00;8.48;;;;;;;;;;5010560;28;20108;-66
2022/05/01 05:10:06;;;;;;;17.38;9.05;;;;;;;;;;5013480;28;20043;-65
2022/05/01 05:12:32;;;;;;;18.10;9.10;;;;;;;;;;5006931;28;20057;-66
2022/05/01 05:15:00;;;;;;;19.38;9.02;;;;;;;;;;5003689;28;20014;-65
2022/05/01 05:17:27;;;;;;;18.05;10.27;;;;;;;;;;5024868;28;20471;-64
2022/05/01 05:19:53;;;;;;;16.58;9.38;;;;;;;;;;5010676;28;20117;-64
2022/05/01 05:22:19;;;;;;;19.95;8.32;;;;;;;;;;5010147;28;20021;-65
2022/05/01 05:24:45;;;;;;;16.48;9.05;;;;;;;;;;5010007;28;20113;-65
2022/05/01 05:27:12;;;;;;;19.20;8.65;;;;;;;;;;5009911;28;20057;-64
2022/05/01 05:29:38;;;;;;;14.00;9.05;;;;;;;;;;5010336;28;20594;-65
2022/05/01 05:32:08;;;;;;;21.38;9.85;;;;;;;;;;5006186;28;20026;-64
2022/05/01 05:34:34;;;;;;;17.43;10.00;;;;;;;;;;5009100;28;20709;-65
2022/05/01 05:37:00;;;;;;;16.02;9.82;;;;;;;;;;5009680;28;20018;-65
2022/05/01 05:39:26;;;;;;;15.88;8.95;;;;;;;;;;5008690;28;20475;-64
2022/05/01 05:41:52;;;;;;;14.57;9.10;;;;;;;;;;5010460;28;20026;-64
2022/05/01 05:44:18;;;;;;;14.13;8.48;;;;;;;;;;5010529;28;20494;-64
2022/05/01 05:46:44;;;;;;;14.38;9.55;;;;;;;;;;5008414;28;20034;-64
2022/05/01 05:49:10;;;;;;;14.95;9.52;;;;;;;;;;5010148;28;20038;-64
2022/05/01 05:51:36;;;;;;;16.25;9.35;;;;;;;;;;5008612;28;20172;-64
2022/05/01 05:54:02;;;;;;;14.32;8.93;;;;;;;;;;5009708;28;20143;-65
2022/05/01 05:56:28;;;;;;;17.38;9.30;;;;;;;;;;5008548;28;20030;-64
2022/05/01 05:58:56;;;;;;;19.85;9.32;;;;;;;;;;5008842;28;20041;-65
2022/05/01 06:01:22;;;;;;;22.27;9.63;;;;;;;;;;5010793;28;20056;-64
2022/05/01 06:03:49;;;;;;;19.40;9.73;;;;;;;;;;5009874;28;20037;-64
2022/05/01 06:06:15;;;;;;;16.77;8.80;;;;;;;;;;5009659;28;20541;-64
2022/05/01 06:08:43;;;;;;;16.58;9.60;;;;;;;;;;5010019;28;20033;-64
2022/05/01 06:11:09;;;;;;;16.85;9.95;;;;;;;;;;5008613;28;20036;-65
2022/05/01 06:13:35;;;;;;;19.40;10.70;;;;;;;;;;5009859;28;20480;-66
2022/05/01 06:16:01;;;;;;;20.10;9.85;;;;;;;;;;5010114;28;20479;-64
2022/05/01 06:18:27;;;;;;;18.50;10.13;;;;;;;;;;5010082;28;20026;-64
2022/05/01 06:20:53;;;;;;;17.48;10.15;;;;;;;;;;5007301;28;20033;-64
2022/05/01 06:23:20;;;;;;;18.45;10.63;;;;;;;;;;5017817;28;20105;-65
2022/05/01 06:25:46;;;;;;;18.70;9.85;;;;;;;;;;5008081;28;20061;-64
2022/05/01 06:28:16;;;;;;;17.50;9.32;;;;;;;;;;5009645;28;20033;-65
2022/05/01 06:30:43;;;;;;;24.13;10.23;;;;;;;;;;5006372;28;20058;-64
2022/05/01 06:33:10;;;;;;;17.77;10.30;;;;;;;;;;5004717;28;20085;-64
2022/05/01 06:35:37;;;;;;;17.38;10.07;;;;;;;;;;5007286;28;20037;-65
2022/05/01 06:38:03;;;;;;;21.95;11.07;;;;;;;;;;5009832;28;20029;-64
2022/05/01 06:40:29;;;;;;;18.65;11.10;;;;;;;;;;5008250;28;20495;-64
2022/05/01 06:42:55;;;;;;;24.15;12.43;;;;;;;;;;5009360;28;20037;-64
2022/05/01 06:45:21;;;;;;;25.33;12.20;;;;;;;;;;5009120;28;20029;-65
2022/05/01 06:47:47;;;;;;;20.33;11.52;;;;;;;;;;5009153;28;20442;-64
2022/05/01 06:50:13;;;;;;;25.33;11.68;;;;;;;;;;5009453;28;20021;-64
2022/05/01 06:52:39;;;;;;;23.42;12.60;;;;;;;;;;5008238;28;20308;-64
2022/05/01 06:55:05;;;;;;;19.63;11.68;;;;;;;;;;5008633;28;20030;-65
2022/05/01 06:57:31;;;;;;;26.35;13.02;;;;;;;;;;5007911;28;20030;-65
2022/05/01 06:59:57;;;;;;;28.17;13.45;;;;;;;;;;5008858;28;20029;-65
2022/05/01 07:02:23;;;;;;;27.58;13.95;;;;;;;;;;5009177;28;20034;-65
2022/05/01 07:04:49;;;;;;;26.42;13.73;;;;;;;;;;5006725;28;20029;-64
2022/05/01 07:07:15;;;;;;;27.80;13.63;;;;;;;;;;5003107;28;20046;-64
2022/05/01 07:12:45;;;;;;;24.30;12.85;;;;;;;;;;5049463;23;20169;-68
2022/05/01 07:15:11;;;;;;;22.52;13.10;;;;;;;;;;5027461;28;20059;-66
2022/05/01 07:17:37;;;;;;;24.40;13.88;;;;;;;;;;5037904;28;20025;-65
2022/05/01 07:20:04;;;;;;;23.63;13.27;;;;;;;;;;5036831;28;20060;-65
2022/05/01 07:22:30;;;;;;;23.75;13.63;;;;;;;;;;5012082;28;20030;-66
2022/05/01 07:24:57;;;;;;;28.92;14.57;;;;;;;;;;5049421;28;20018;-66
2022/05/01 07:27:23;;;;;;;26.88;13.35;;;;;;;;;;5010912;28;20058;-65
2022/05/01 07:29:49;;;;;;;24.00;13.30;;;;;;;;;;5030619;28;20032;-65
2022/05/01 07:32:15;;;;;;;23.52;12.48;;;;;;;;;;5032822;28;20360;-65
2022/05/01 07:34:41;;;;;;;21.08;12.13;;;;;;;;;;5024280;28;20032;-65
2022/05/01 07:37:07;;;;;;;20.10;10.73;;;;;;;;;;5036716;28;20036;-65
2022/05/01 07:39:33;;;;;;;23.92;11.50;;;;;;;;;;5034404;28;20067;-67
2022/05/01 07:42:00;;;;;;;22.65;12.82;;;;;;;;;;5011044;28;20041;-65
2022/05/01 07:44:26;;;;;;;20.98;12.18;;;;;;;;;;5019961;28;20514;-66
2022/05/01 07:46:52;;;;;;;21.63;11.68;;;;;;;;;;5025382;28;20140;-65
2022/05/01 07:49:18;;;;;;;23.40;11.55;;;;;;;;;;5037869;28;20525;-67
2022/05/01 07:51:44;;;;;;;22.67;12.68;;;;;;;;;;5022838;28;20072;-65
2022/05/01 07:54:10;;;;;;;21.67;12.00;;;;;;;;;;5023009;28;20026;-66
2022/05/01 07:56:36;;;;;;;20.80;11.45;;;;;;;;;;5030904;28;20502;-65
2022/05/01 07:59:03;;;;;;;22.73;11.27;;;;;;;;;;5023117;28;20036;-66
2022/05/01 08:01:29;;;;;;;18.05;10.55;;;;;;;;;;5031884;28;20493;-66
2022/05/01 08:06:40;;;;;;;21.50;9.85;;;;;;;;;;5027515;28;20072;-66
2022/05/01 08:09:06;;;;;;;19.05;9.38;;;;;;;;;;5037985;28;20471;-65
2022/05/01 08:11:32;;;;;;;18.67;9.93;;;;;;;;;;5037533;28;20039;-66
2022/05/01 08:13:58;;;;;;;18.55;10.90;;;;;;;;;;5043657;28;20112;-66
2022/05/01 08:16:24;;;;;;;16.92;9.50;;;;;;;;;;5042835;28;20108;-66
2022/05/01 08:21:36;;;;;;;17.75;9.32;;;;;;;;;;5054610;28;20064;-66
2022/05/01 08:24:02;;;;;;;16.80;9.63;;;;;;;;;;5043419;28;20017;-66
2022/05/01 08:26:31;;;;;;;18.33;9.50;;;;;;;;;;5031219;28;20048;-66
2022/05/01 08:28:58;;;;;;;15.95;9.07;;;;;;;;;;5043537;28;20512;-66
2022/05/01 08:31:24;;;;;;;14.75;9.10;;;;;;;;;;5036899;28;20028;-66
2022/05/01 08:33:50;;;;;;;14.52;8.60;;;;;;;;;;5031369;28;20031;-66
2022/05/01 08:36:16;;;;;;;16.83;8.98;;;;;;;;;;5013443;28;20386;-66
2022/05/01 08:38:43;;;;;;;17.55;8.73;;;;;;;;;;5037645;28;20039;-67
2022/05/01 08:41:09;;;;;;;14.27;8.90;;;;;;;;;;5035235;28;20013;-66
2022/05/01 08:43:36;;;;;;;17.77;9.57;;;;;;;;;;5030058;28;20383;-66
2022/05/01 08:46:02;;;;;;;16.42;8.98;;;;;;;;;;5019158;28;20041;-66
2022/05/01 08:48:40;;;;;;;16.38;8.93;;;;;;;;;;5012849;28;20034;-66
2022/05/01 08:57:21;;;;;;;15.85;8.48;;;;;;;;;;5025752;28;20128;-65
2022/05/01 08:59:50;;;;;;;14.27;8.10;;;;;;;;;;5033607;28;20022;-66
2022/05/01 09:02:16;;;;;;;13.05;8.35;;;;;;;;;;5038635;28;20022;-66
2022/05/01 09:04:42;;;;;;;17.65;9.00;;;;;;;;;;5012420;28;20059;-66
2022/05/01 09:07:10;;;;;;;14.88;8.45;;;;;;;;;;5013067;28;20044;-66
2022/05/01 09:09:36;;;;;;;13.05;7.28;;;;;;;;;;5021622;28;20565;-67
2022/05/01 09:14:48;;;;;;;15.20;8.20;;;;;;;;;;5034108;28;20084;-67
2022/05/01 09:17:14;;;;;;;13.10;8.40;;;;;;;;;;5030682;28;20032;-69
2022/05/01 09:19:40;;;;;;;17.83;8.52;;;;;;;;;;5031674;28;20025;-66
2022/05/01 09:22:07;;;;;;;13.35;7.82;;;;;;;;;;5031226;28;20021;-68
2022/05/01 09:24:33;;;;;;;13.60;8.15;;;;;;;;;;5030498;28;20467;-67
2022/05/01 09:26:59;;;;;;;15.80;7.95;;;;;;;;;;5015244;28;20114;-67
2022/05/01 09:29:32;;;;;;;14.82;8.63;;;;;;;;;;5042483;28;20151;-67
2022/05/01 09:31:58;;;;;;;17.52;8.82;;;;;;;;;;5033846;28;20525;-67
2022/05/01 09:34:26;;;;;;;15.40;8.85;;;;;;;;;;5042548;28;20032;-67
2022/05/01 09:36:53;;;;;;;15.05;8.27;;;;;;;;;;5037791;28;20020;-67
2022/05/01 09:39:23;;;;;;;17.10;8.00;;;;;;;;;;5038707;28;20026;-67
2022/05/01 09:41:50;;;;;;;13.27;8.20;;;;;;;;;;5020761;28;20052;-67
2022/05/01 09:44:16;;;;;;;15.45;7.15;;;;;;;;;;5035394;28;20076;-67
2022/05/01 09:46:46;;;;;;;12.13;7.10;;;;;;;;;;5020662;28;20059;-67
2022/05/01 09:49:16;;;;;;;11.80;7.10;;;;;;;;;;5026196;28;20033;-67
2022/05/01 09:51:43;;;;;;;;;;;;;;;;;;5031767;28;20496;-67
2022/05/01 09:54:09;;;;;;;12.93;5.57;;;;;;;;;;5028132;28;20019;-68
2022/05/01 09:56:54;;;;;;;9.40;5.65;;;;;;;;;;5030909;28;20121;-67
2022/05/01 09:59:21;;;;;;;9.40;6.20;;;;;;;;;;5031811;28;20029;-68
2022/05/01 10:02:08;;;;;;;14.27;6.85;;;;;;;;;;5025469;28;20418;-67
2022/05/01 10:04:35;;;;;;;12.15;6.55;;;;;;;;;;5033957;28;20035;-69
2022/05/01 10:07:01;;;;;;;11.60;6.03;;;;;;;;;;5034459;28;20088;-67
2022/05/01 10:09:31;;;;;;;12.88;6.72;;;;;;;;;;5026842;28;20076;-67
2022/05/01 10:12:05;;;;;;;10.20;6.57;;;;;;;;;;5020558;28;20048;-68
2022/05/01 10:14:31;;;;;;;12.88;7.63;;;;;;;;;;5037067;28;20045;-67
2022/05/01 10:16:57;;;;;;;12.65;6.22;;;;;;;;;;5028197;28;20025;-68
2022/05/01 10:19:24;;;;;;;13.23;6.72;;;;;;;;;;5031635;28;20029;-67
2022/05/01 10:21:53;;;;;;;11.10;6.38;;;;;;;;;;5021418;28;20026;-68
2022/05/01 10:24:20;;;;;;;14.15;7.53;;;;;;;;;;5027818;28;20052;-67
2022/05/01 10:26:51;;;;;;;12.00;7.40;;;;;;;;;;5029340;28;20037;-67
2022/05/01 10:29:36;;;;;;;11.82;7.30;;;;;;;;;;5017791;28;20025;-67
2022/05/01 10:35:05;;;;;;;45.78;18.70;;;;;;;;;;5037843;28;20040;-68
2022/05/01 10:37:50;;;;;;;12.15;6.90;;;;;;;;;;5037495;28;20109;-67
2022/05/01 10:40:16;;;;;;;10.68;6.75;;;;;;;;;;5031935;28;20483;-67
2022/05/01 10:42:45;;;;;;;12.30;7.20;;;;;;;;;;5019374;28;20033;-67
2022/05/01 10:45:21;;;;;;;10.98;6.15;;;;;;;;;;5034415;28;20124;-68
2022/05/01 10:47:47;;;;;;;11.35;6.97;;;;;;;;;;5031772;28;20513;-67
2022/05/01 10:50:19;;;;;;;12.68;7.47;;;;;;;;;;5027856;28;20535;-67
2022/05/01 10:53:05;;;;;;;12.18;7.47;;;;;;;;;;5031005;28;20143;-68
2022/05/01 10:55:42;;;;;;;15.23;7.35;;;;;;;;;;5039185;28;20082;-67
2022/05/01 10:58:27;;;;;;;10.02;5.82;;;;;;;;;;5021466;28;20028;-67
2022/05/01 11:00:56;;;;;;;11.85;6.57;;;;;;;;;;5025464;28;20026;-67
2022/05/01 11:03:23;;;;;;;12.02;6.78;;;;;;;;;;5024088;28;20037;-69
2022/05/01 11:05:54;;;;;;;14.60;7.38;;;;;;;;;;5015096;28;20497;-67
2022/05/01 11:08:23;;;;;;;13.25;7.68;;;;;;;;;;5017904;28;20069;-67
2022/05/01 11:10:54;;;;;;;13.43;7.03;;;;;;;;;;5032261;28;20083;-68
2022/05/01 11:13:20;;;;;;;13.85;7.18;;;;;;;;;;5032746;28;20108;-67
2022/05/01 11:15:50;;;;;;;14.73;6.78;;;;;;;;;;5033233;28;20022;-68
2022/05/01 11:18:17;;;;;;;10.23;6.80;;;;;;;;;;5047593;28;20029;-67
2022/05/01 11:20:43;;;;;;;10.93;6.88;;;;;;;;;;5034070;28;20390;-67
2022/05/01 11:23:30;;;;;;;14.50;7.00;;;;;;;;;;5026370;28;20046;-68
2022/05/01 11:26:13;;;;;;;12.80;6.68;;;;;;;;;;5038728;28;20029;-67
2022/05/01 11:28:46;;;;;;;11.57;7.20;;;;;;;;;;5029146;28;20021;-67
2022/05/01 11:31:31;;;;;;;11.43;7.00;;;;;;;;;;5026768;28;20025;-67
2022/05/01 11:34:15;;;;;;;14.10;7.18;;;;;;;;;;5014892;28;20017;-67
2022/05/01 11:36:54;;;;;;;12.25;7.63;;;;;;;;;;5023945;28;20022;-68
2022/05/01 11:39:41;;;;;;;14.57;7.85;;;;;;;;;;5023524;28;20029;-68
2022/05/01 11:42:30;;;;;;;13.55;7.43;;;;;;;;;;4997504;28;20039;-68
2022/05/01 11:44:57;;;;;;;11.82;7.43;;;;;;;;;;5020316;28;20037;-68
2022/05/01 11:47:23;;;;;;;12.38;6.63;;;;;;;;;;5028643;28;20041;-68
2022/05/01 11:49:52;;;;;;;16.17;7.15;;;;;;;;;;5013274;28;20034;-67
2022/05/01 11:52:19;;;;;;;12.43;8.13;;;;;;;;;;5034988;28;20022;-67
2022/05/01 11:54:55;;;;;;;12.70;7.28;;;;;;;;;;5040676;28;20091;-67
2022/05/01 12:03:17;;;;;;;17.02;7.25;;;;;;;;;;5035932;28;20421;-67
2022/05/01 12:05:47;;;;;;;12.77;7.03;;;;;;;;;;5021820;28;20045;-67
2022/05/01 12:08:14;;;;;;;13.80;7.35;;;;;;;;;;5045577;28;20013;-67
2022/05/01 12:10:43;;;;;;;18.88;6.90;;;;;;;;;;5016449;28;20071;-67
2022/05/01 12:13:20;;;;;;;15.87;7.87;;;;;;;;;;5031506;28;20501;-67
2022/05/01 12:15:47;;;;;;;13.38;7.90;;;;;;;;;;5032221;28;20025;-67
2022/05/01 12:18:13;;;;;;;10.82;6.68;;;;;;;;;;5031797;28;20022;-67
2022/05/01 12:20:39;;;;;;;11.05;6.82;;;;;;;;;;5011654;28;20022;-67
2022/05/01 12:23:11;;;;;;;24.10;10.43;;;;;;;;;;5044421;28;20021;-67
2022/05/01 12:25:40;;;;;;;12.73;7.13;;;;;;;;;;5039795;28;20087;-67
2022/05/01 12:28:07;;;;;;;12.43;7.13;;;;;;;;;;5012511;28;20021;-67
2022/05/01 12:30:34;;;;;;;13.02;6.75;;;;;;;;;;5022139;28;20117;-68
2022/05/01 12:33:00;;;;;;;13.30;7.15;;;;;;;;;;5023855;28;20103;-67
2022/05/01 12:35:26;;;;;;;14.93;8.00;;;;;;;;;;5010867;28;20036;-67
2022/05/01 12:37:52;;;;;;;12.25;6.80;;;;;;;;;;5031371;28;20434;-67
2022/05/01 12:45:54;;;;;;;13.00;6.50;;;;;;;;;;5040154;28;20187;-67
2022/05/01 12:48:21;;;;;;;13.55;6.65;;;;;;;;;;5033053;28;20025;-68
2022/05/01 12:50:51;;;;;;;12.80;7.25;;;;;;;;;;5015936;28;20044;-67
2022/05/01 12:53:30;;;;;;;13.63;6.63;;;;;;;;;;5019714;28;20025;-67
2022/05/01 12:55:57;;;;;;;12.55;6.43;;;;;;;;;;5030647;28;20013;-67
2022/05/01 12:58:28;;;;;;;11.82;6.53;;;;;;;;;;5038554;28;20216;-67
2022/05/01 13:00:54;;;;;;;10.85;6.78;;;;;;;;;;5039811;28;20056;-68
2022/05/01 13:03:28;;;;;;;11.73;6.22;;;;;;;;;;5010269;28;20034;-69
2022/05/01 13:06:07;;;;;;;12.60;7.30;;;;;;;;;;5029845;28;20118;-67
2022/05/01 13:08:43;;;;;;;13.43;7.40;;;;;;;;;;5010177;28;20481;-67
2022/05/01 13:11:09;;;;;;;12.82;6.28;;;;;;;;;;5006591;28;20498;-67
2022/05/01 13:16:47;;;;;;;11.65;6.80;;;;;;;;;;5026394;22;20057;-66
2022/05/01 13:19:18;;;;;;;12.43;7.55;;;;;;;;;;4991274;28;20411;-67
2022/05/01 13:21:44;;;;;;;12.98;7.93;;;;;;;;;;4998328;28;20041;-67
2022/05/01 13:24:20;;;;;;;12.05;7.03;;;;;;;;;;4990791;28;20034;-67
2022/05/01 13:26:46;;;;;;;14.82;8.10;;;;;;;;;;4993450;28;20035;-67
2022/05/01 13:29:12;;;;;;;15.52;7.90;;;;;;;;;;4991315;28;20046;-66
2022/05/01 13:31:40;;;;;;;12.57;7.13;;;;;;;;;;4998713;28;20113;-67
2022/05/01 13:34:06;;;;;;;12.80;6.88;;;;;;;;;;4998723;28;20046;-68
2022/05/01 13:36:33;;;;;;;11.02;7.25;;;;;;;;;;4990338;28;20475;-67
2022/05/01 13:39:00;;;;;;;20.00;7.65;;;;;;;;;;4990702;28;20434;-67
2022/05/01 13:47:12;;;;;;;16.00;6.65;;;;;;;;;;4937694;29;20402;-67
2022/05/01 13:49:40;;;;;;;12.75;7.43;;;;;;;;;;4929272;29;20090;-67
2022/05/01 13:52:07;;;;;;;12.30;7.47;;;;;;;;;;4934371;29;20547;-67
2022/05/01 13:54:33;;;;;;;16.20;7.63;;;;;;;;;;4941306;29;20633;-67
2022/05/01 13:56:59;;;;;;;12.05;7.07;;;;;;;;;;4928017;29;20098;-66
2022/05/01 13:59:25;;;;;;;11.93;7.18;;;;;;;;;;4937801;29;20027;-66
2022/05/01 14:01:52;;;;;;;11.70;6.97;;;;;;;;;;4937191;29;20067;-67
2022/05/01 14:04:22;;;;;;;11.80;7.15;;;;;;;;;;4930061;29;20106;-67
2022/05/01 14:06:48;;;;;;;11.30;7.23;;;;;;;;;;4929266;29;20036;-67
2022/05/01 14:09:17;;;;;;;12.30;6.95;;;;;;;;;;4929709;29;20040;-67
2022/05/01 14:11:47;;;;;;;14.20;6.50;;;;;;;;;;4930068;29;20042;-67
2022/05/01 14:14:14;;;;;;;14.95;8.50;;;;;;;;;;4930235;29;20039;-67
2022/05/01 14:16:41;;;;;;;13.90;7.55;;;;;;;;;;4928714;29;20074;-67
2022/05/01 14:19:07;;;;;;;13.65;7.53;;;;;;;;;;4937208;29;20111;-67
2022/05/01 14:21:36;;;;;;;11.90;6.32;;;;;;;;;;4969483;28;20035;-66
2022/05/01 14:24:04;;;;;;;9.07;5.78;;;;;;;;;;4978287;28;20023;-67
2022/05/01 14:26:30;;;;;;;12.75;7.22;;;;;;;;;;4985033;28;20042;-67
2022/05/01 14:28:56;;;;;;;12.38;7.43;;;;;;;;;;4990304;28;20014;-67
2022/05/01 14:31:28;;;;;;;14.90;7.78;;;;;;;;;;4995362;28;20033;-66
2022/05/01 14:34:05;;;;;;;13.43;7.95;;;;;;;;;;4990504;28;20027;-67
2022/05/01 14:36:34;;;;;;;11.88;7.93;;;;;;;;;;4989367;28;20511;-67
2022/05/01 14:39:03;;;;;;;13.63;7.90;;;;;;;;;;4989758;28;20112;-67
2022/05/01 14:41:49;;;;;;;14.20;7.13;;;;;;;;;;4989082;28;20448;-67
2022/05/01 14:44:16;;;;;;;13.52;6.97;;;;;;;;;;4984385;28;20023;-67
2022/05/01 14:46:45;;;;;;;11.63;6.57;;;;;;;;;;4985065;28;20034;-67
2022/05/01 14:49:18;;;;;;;13.68;6.65;;;;;;;;;;4990403;28;20018;-67
2022/05/01 14:51:46;;;;;;;8.52;5.65;;;;;;;;;;4990129;28;20092;-66
2022/05/01 14:54:14;;;;;;;11.82;5.85;;;;;;;;;;4989961;28;20026;-67
2022/05/01 14:56:40;;;;;;;13.52;5.72;;;;;;;;;;4988024;28;20116;-67
2022/05/01 15:07:25;;;;;;;10.35;5.35;;;;;;;;;;4989882;28;20057;-67
2022/05/01 15:09:52;;;;;;;10.70;5.95;;;;;;;;;;4989085;28;20472;-67
2022/05/01 15:12:18;;;;;;;10.13;5.28;;;;;;;;;;4990377;28;20037;-66
2022/05/01 15:14:44;;;;;;;11.85;6.35;;;;;;;;;;5001887;28;20030;-67
2022/05/01 15:17:11;;;;;;;11.10;5.18;;;;;;;;;;5027261;28;20045;-67
2022/05/01 15:19:45;;;;;;;9.25;5.32;;;;;;;;;;5011412;28;20028;-67
2022/05/01 15:22:22;;;;;;;13.23;6.35;;;;;;;;;;5029359;28;20097;-67
2022/05/01 15:24:57;;;;;;;10.93;5.55;;;;;;;;;;5028796;28;20021;-66
2022/05/01 15:27:38;;;;;;;13.32;5.88;;;;;;;;;;5031705;28;20191;-66
2022/05/01 15:30:05;;;;;;;11.10;5.82;;;;;;;;;;5028953;28;20032;-67
2022/05/01 15:32:31;;;;;;;12.43;5.45;;;;;;;;;;5028172;28;20390;-67
2022/05/01 15:35:01;;;;;;;11.23;5.72;;;;;;;;;;5037016;28;20025;-67